Tunis, Tunisia
Current Conditions -  °F | °C
As of 5:00 PM on Sunday 25 Jan 2015 (Local Time) from DTTA Reporting Station
Broken Clouds Broken Clouds  
Wind Chill: 52°   Ceiling: 2600
Heat Index: 52°   Visibility: 6mi
Dew Point: 37°   Wind: 5mph
Humidity: 58%   Direction: 310°NW
Pressure: 29.85"   Gusts: NA
Location:  36.84°N, 10.22°E
Report Text: DTTA 251600Z 31004KT 270V330 9999 BKN026 FEW030CB 11/03 Q1011
Loading
Personal Weather Stations






























Interactive Weather Map New forecast layout! Learn more

10-Day Weather Forecast

Advertisements
Track Severe Weather on mobile